GLJ weather

La Jagua Airport
Garzón, Huila Department, Colombia

Public forecast

Using degrees Celsius for public forecast. Weather courtesy of forecast.io.

Closest aviation weather report (METAR) to La Jagua Airport

Report is more than 6 hours old.

Closest report is Gustavo Artunduaga Paredes Airport, 34.4 nm (63.6 km) SSE. Retrieved 2020/03/13 01:00 UTC (28 days ago):

SKFL 130100Z 00000KT 9999 FEW030 SCT140 27/25 A2979

Closest aviation forecast (TAF) to La Jagua Airport

Closest forecast is Alfonso Bonilla Aragon International Airport, 93.4 nm (173.1 km) NNW. Retrieved 2020/04/10 12:39 UTC (12 minutes ago):

TAF SKCL 101030Z 1012/1112 VRB03KT 9999 SCT025 BKN090 BECMG 1020/1022 32012KT PROB40 TEMPO 1022/1101 TS SCT017CB BKN100 TX31/1019Z TN22/1110Z